createdAt,value
2018-08-27T00:00:14.205Z,44.52
2018-08-27T00:00:54.749Z,44.33
2018-08-27T00:01:35.299Z,44.13
2018-08-27T00:02:15.869Z,43.68
2018-08-27T00:02:56.435Z,43.85
2018-08-27T00:03:36.982Z,43.85
2018-08-27T00:04:17.543Z,43.95
2018-08-27T00:04:58.135Z,44.04
2018-08-27T00:05:38.726Z,43.85
2018-08-27T00:06:19.232Z,43.66
2018-08-27T00:06:59.818Z,43.95
2018-08-27T00:07:40.419Z,44.04
2018-08-27T00:08:20.978Z,43.95
2018-08-27T00:09:01.574Z,43.85
2018-08-27T00:09:42.138Z,44.52
2018-08-27T00:10:22.710Z,44.43
2018-08-27T00:11:03.272Z,44.43
2018-08-27T00:11:43.924Z,44.52
2018-08-27T00:12:24.481Z,44.81
2018-08-27T00:13:05.061Z,45
2018-08-27T00:13:45.624Z,44.9
2018-08-27T00:14:26.179Z,44.83
2018-08-27T00:15:06.733Z,44.81
2018-08-27T00:15:47.306Z,44.52
2018-08-27T00:16:27.904Z,44.52
2018-08-27T00:17:08.469Z,44.81
2018-08-27T00:17:49.025Z,44.93
2018-08-27T00:18:29.605Z,44.43
2018-08-27T00:19:10.171Z,44.04
2018-08-27T00:19:50.760Z,44.33
2018-08-27T00:20:31.336Z,44.23
2018-08-27T00:21:11.925Z,44.33
2018-08-27T00:21:52.469Z,44.52
2018-08-27T00:22:33.036Z,44.43
2018-08-27T00:23:13.642Z,44.81
2018-08-27T00:23:54.197Z,44.62
2018-08-27T00:24:34.765Z,44.52
2018-08-27T00:25:15.354Z,44.52
2018-08-27T00:25:55.926Z,44.81
2018-08-27T00:26:36.519Z,44.9
2018-08-27T00:27:17.084Z,44.93
2018-08-27T00:27:57.645Z,44.9
2018-08-27T00:28:38.207Z,45.02
2018-08-27T00:29:18.786Z,45
2018-08-27T00:29:59.351Z,44.81
2018-08-27T00:30:39.905Z,44.04
2018-08-27T00:31:20.459Z,44.43
2018-08-27T00:32:01.033Z,44.62
2018-08-27T00:32:41.591Z,45.09
2018-08-27T00:33:22.161Z,44.93
2018-08-27T00:34:02.724Z,45.12
2018-08-27T00:34:43.294Z,44.9
2018-08-27T00:35:23.854Z,44.93
2018-08-27T00:36:04.408Z,45.02
2018-08-27T00:36:44.981Z,44.62
2018-08-27T00:37:25.550Z,44.62
2018-08-27T00:38:06.170Z,44.9
2018-08-27T00:38:46.736Z,44.93
2018-08-27T00:39:27.344Z,44.81
2018-08-27T00:40:07.911Z,44.81
2018-08-27T00:40:48.478Z,44.93
2018-08-27T00:41:29.057Z,44.93
2018-08-27T00:42:09.622Z,45.09
2018-08-27T00:42:50.191Z,44.93
2018-08-27T00:43:30.755Z,44.9
2018-08-27T00:44:11.317Z,44.93
2018-08-27T00:44:51.883Z,45.12
2018-08-27T00:45:32.439Z,44.23
2018-08-27T00:46:13.000Z,44.45
2018-08-27T00:46:53.565Z,44.52
2018-08-27T00:47:34.130Z,44.04
2018-08-27T00:48:14.690Z,44.62
2018-08-27T00:48:55.323Z,44.52
2018-08-27T00:49:35.891Z,44.52
2018-08-27T00:50:16.460Z,44.43
2018-08-27T00:50:57.040Z,44.52
2018-08-27T00:51:37.581Z,44.43
2018-08-27T00:52:18.142Z,44.43
2018-08-27T00:52:58.714Z,44.33
2018-08-27T00:53:39.286Z,44.33
2018-08-27T00:54:19.855Z,45.09
2018-08-27T00:55:00.420Z,44.9
2018-08-27T00:55:40.978Z,44.71
2018-08-27T00:56:21.580Z,45.09
2018-08-27T00:57:02.126Z,44.81
2018-08-27T00:57:42.689Z,44.71
2018-08-27T00:58:23.239Z,44.71
2018-08-27T00:59:03.811Z,44.81
2018-08-27T00:59:44.375Z,44.9
2018-08-27T01:00:24.972Z,44.81
2018-08-27T01:01:05.508Z,45
2018-08-27T01:01:46.078Z,44.9
2018-08-27T01:02:26.637Z,44.71
2018-08-27T01:03:07.199Z,44.62
2018-08-27T01:03:47.761Z,45.09
2018-08-27T01:04:28.319Z,45.19
2018-08-27T01:05:08.889Z,44.9
2018-08-27T01:05:49.451Z,45
2018-08-27T01:06:30.016Z,44.9
2018-08-27T01:07:10.572Z,45
2018-08-27T01:07:51.135Z,45.09
2018-08-27T01:08:31.693Z,44.81
2018-08-27T01:09:12.257Z,45.09
2018-08-27T01:09:52.812Z,44.9
2018-08-27T01:10:33.387Z,44.71
2018-08-27T01:11:13.961Z,45
2018-08-27T01:11:54.530Z,45.48
2018-08-27T01:12:35.136Z,44.9
2018-08-27T01:13:15.703Z,44.9
2018-08-27T01:13:56.286Z,45.19
2018-08-27T01:14:36.845Z,44.71
2018-08-27T01:15:17.417Z,45.09
2018-08-27T01:15:57.984Z,44.81
2018-08-27T01:16:38.545Z,44.9
2018-08-27T01:17:19.105Z,45.09
2018-08-27T01:17:59.668Z,45
2018-08-27T01:18:40.226Z,44.9
2018-08-27T01:19:20.793Z,45
2018-08-27T01:20:01.360Z,44.81
2018-08-27T01:20:41.926Z,45
2018-08-27T01:21:22.489Z,44.71
2018-08-27T01:22:03.063Z,45.48
2018-08-27T01:22:43.623Z,45.48
2018-08-27T01:23:24.193Z,45.48
2018-08-27T01:24:04.751Z,45.29
2018-08-27T01:24:45.317Z,45.48
2018-08-27T01:25:25.882Z,45.57
2018-08-27T01:26:06.492Z,45.19
2018-08-27T01:26:47.069Z,45.29
2018-08-27T01:27:27.621Z,45.57
2018-08-27T01:28:08.205Z,45.48
2018-08-27T01:28:48.764Z,45
2018-08-27T01:29:29.327Z,45
2018-08-27T01:30:09.891Z,45.57
2018-08-27T01:30:50.456Z,45.29
2018-08-27T01:31:31.009Z,45.17
2018-08-27T01:32:11.597Z,45.57
2018-08-27T01:32:52.177Z,45.45
2018-08-27T01:33:32.741Z,46.15
2018-08-27T01:34:13.329Z,45.96
2018-08-27T01:34:53.887Z,45.96
2018-08-27T01:35:34.451Z,46.62
2018-08-27T01:36:15.011Z,45.76
2018-08-27T01:36:55.586Z,45.67
2018-08-27T01:37:36.154Z,45.86
2018-08-27T01:38:16.708Z,46.44
2018-08-27T01:38:57.271Z,46.34
2018-08-27T01:39:37.843Z,46.25
2018-08-27T01:40:18.452Z,46.53
2018-08-27T01:40:59.007Z,45.86
2018-08-27T01:41:39.574Z,45.76
2018-08-27T01:42:20.143Z,46.25
2018-08-27T01:43:00.703Z,46.25
2018-08-27T01:43:41.269Z,46.25
2018-08-27T01:44:21.830Z,46.31
2018-08-27T01:45:02.401Z,46.12
2018-08-27T01:45:42.955Z,46.72
2018-08-27T01:46:23.519Z,46.31
2018-08-27T01:47:04.081Z,46.31
2018-08-27T01:47:44.633Z,46.31
2018-08-27T01:48:25.199Z,46.51
2018-08-27T01:49:05.759Z,46.61
2018-08-27T01:49:46.305Z,46.89
2018-08-27T01:50:26.865Z,46.7
2018-08-27T01:51:07.426Z,46.7
2018-08-27T01:51:47.996Z,46.41
2018-08-27T01:52:28.555Z,46.51
2018-08-27T01:53:09.127Z,46.7
2018-08-27T01:53:49.696Z,46.51
2018-08-27T01:54:30.274Z,46.98
2018-08-27T01:55:10.835Z,47.18
2018-08-27T01:55:51.384Z,46.98
2018-08-27T01:56:31.955Z,46.8
2018-08-27T01:57:12.516Z,47.37
2018-08-27T01:57:53.072Z,47.66
2018-08-27T01:58:33.639Z,47.66
2018-08-27T01:59:14.199Z,47.27
2018-08-27T01:59:54.776Z,47.56
2018-08-27T02:00:35.341Z,47.37
2018-08-27T02:01:15.918Z,47.47
2018-08-27T02:01:56.484Z,47.47
2018-08-27T02:02:37.045Z,47.47
2018-08-27T02:03:17.609Z,47.47
2018-08-27T02:03:58.173Z,47.66
2018-08-27T02:04:38.736Z,47.56
2018-08-27T02:05:19.300Z,47.08
2018-08-27T02:05:59.871Z,46.89
2018-08-27T02:06:40.432Z,46.8
2018-08-27T02:07:20.991Z,47.08
2018-08-27T02:08:01.549Z,47.37
2018-08-27T02:08:42.119Z,47.27
2018-08-27T02:09:22.680Z,47.37
2018-08-27T02:10:03.244Z,47.56
2018-08-27T02:10:43.802Z,47.27
2018-08-27T02:11:24.369Z,47.56
2018-08-27T02:12:04.935Z,47.27
2018-08-27T02:12:45.491Z,47.37
2018-08-27T02:13:26.059Z,47.18
2018-08-27T02:14:06.636Z,47.18
2018-08-27T02:14:47.194Z,47.94
2018-08-27T02:15:27.752Z,47.85
2018-08-27T02:16:08.321Z,47.75
2018-08-27T02:16:48.888Z,47.94
2018-08-27T02:17:29.448Z,47.08
2018-08-27T02:18:10.044Z,47.18
2018-08-27T02:18:50.603Z,48.04
2018-08-27T02:19:31.165Z,47.85
2018-08-27T02:20:11.726Z,47.85
2018-08-27T02:20:52.310Z,48.04
2018-08-27T02:21:32.848Z,48.04
2018-08-27T02:22:13.413Z,47.94
2018-08-27T02:22:53.983Z,47.85
2018-08-27T02:23:34.543Z,47.94
2018-08-27T02:24:15.101Z,48.23
2018-08-27T02:24:55.668Z,48.04
2018-08-27T02:25:36.227Z,47.85
2018-08-27T02:26:16.793Z,47.73
2018-08-27T02:26:57.366Z,48.02
2018-08-27T02:27:37.928Z,48.39
2018-08-27T02:28:18.492Z,48.39
2018-08-27T02:28:59.063Z,48.02
2018-08-27T02:29:39.628Z,48.33
2018-08-27T02:30:20.184Z,48.78
2018-08-27T02:31:00.754Z,48.39
2018-08-27T02:31:41.315Z,48.02
2018-08-27T02:32:21.905Z,48.11
2018-08-27T02:33:02.440Z,47.73
2018-08-27T02:33:43.071Z,48.11
2018-08-27T02:34:23.650Z,48.21
2018-08-27T02:35:04.210Z,47.82
2018-08-27T02:35:44.756Z,48.21
2018-08-27T02:36:25.322Z,48.3
2018-08-27T02:37:05.888Z,48.3
2018-08-27T02:37:46.446Z,48.11
2018-08-27T02:38:27.005Z,48.11
2018-08-27T02:39:07.599Z,48.3
2018-08-27T02:39:48.166Z,48.49
2018-08-27T02:40:28.704Z,48.88
2018-08-27T02:41:09.288Z,48.49
2018-08-27T02:41:49.859Z,48.49
2018-08-27T02:42:30.427Z,48.49
2018-08-27T02:43:11.025Z,48.59
2018-08-27T02:43:51.564Z,48.59
2018-08-27T02:44:32.120Z,48.68
2018-08-27T02:45:12.672Z,48.88
2018-08-27T02:45:53.228Z,48.68
2018-08-27T02:46:33.791Z,48.39
2018-08-27T02:47:14.348Z,48.02
2018-08-27T02:47:54.971Z,47.63
2018-08-27T02:48:35.522Z,48.3
2018-08-27T02:49:16.113Z,48.39
2018-08-27T02:49:56.693Z,48.3
2018-08-27T02:50:37.271Z,48.39
2018-08-27T02:51:17.843Z,48.49
2018-08-27T02:51:58.394Z,48.49
2018-08-27T02:52:39.032Z,48.78
2018-08-27T02:53:19.587Z,48.11
2018-08-27T02:54:00.162Z,48.3
2018-08-27T02:54:40.745Z,48.68
2018-08-27T02:55:21.352Z,48.78
2018-08-27T02:56:01.900Z,48.3
2018-08-27T02:56:42.503Z,48.11
2018-08-27T02:57:23.071Z,48.21
2018-08-27T02:58:03.617Z,48.21
2018-08-27T02:58:44.180Z,48.68
2018-08-27T02:59:24.745Z,48.97
2018-08-27T03:00:05.306Z,48.68
2018-08-27T03:00:45.868Z,48.68
2018-08-27T03:01:26.443Z,48.88
2018-08-27T03:02:07.025Z,48.21
2018-08-27T03:02:47.578Z,48.49
2018-08-27T03:03:28.136Z,48.97
2018-08-27T03:04:08.705Z,48.68
2018-08-27T03:04:49.264Z,48.49
2018-08-27T03:05:29.821Z,48.68
2018-08-27T03:06:10.380Z,48.88
2018-08-27T03:06:50.974Z,48.68
2018-08-27T03:07:31.548Z,48.97
2018-08-27T03:08:12.113Z,48.88
2018-08-27T03:08:52.677Z,48.97
2018-08-27T03:09:33.261Z,48.11
2018-08-27T03:10:13.824Z,48.21
2018-08-27T03:10:54.401Z,48.21
2018-08-27T03:11:34.949Z,48.11
2018-08-27T03:12:15.500Z,48.11
2018-08-27T03:12:56.094Z,48.11
2018-08-27T03:13:36.639Z,48.88
2018-08-27T03:14:17.217Z,48.78
2018-08-27T03:14:57.789Z,48.39
2018-08-27T03:15:38.351Z,48.49
2018-08-27T03:16:18.908Z,48.97
2018-08-27T03:16:59.478Z,48.97
2018-08-27T03:17:40.051Z,48.68
2018-08-27T03:18:20.669Z,48.21
2018-08-27T03:19:01.168Z,47.92
2018-08-27T03:19:41.759Z,48.39
2018-08-27T03:20:22.298Z,48.78
2018-08-27T03:21:02.862Z,48.49
2018-08-27T03:21:43.418Z,48.68
2018-08-27T03:22:23.981Z,48.59
2018-08-27T03:23:04.621Z,48.59
2018-08-27T03:23:45.161Z,48.68
2018-08-27T03:24:25.738Z,48.49
2018-08-27T03:25:06.460Z,48.97
2018-08-27T03:25:46.931Z,48.78
2018-08-27T03:26:27.498Z,48.68
2018-08-27T03:27:08.038Z,48.78
2018-08-27T03:27:48.614Z,49.16
2018-08-27T03:28:29.246Z,49.16
2018-08-27T03:29:09.822Z,48.88
2018-08-27T03:29:50.381Z,49.16
2018-08-27T03:30:30.971Z,49.45
2018-08-27T03:31:11.534Z,49.26
2018-08-27T03:31:52.090Z,48.78
2018-08-27T03:32:32.642Z,48.88
2018-08-27T03:33:13.247Z,48.78
2018-08-27T03:33:53.850Z,49.07
2018-08-27T03:34:34.402Z,49.16
2018-08-27T03:35:14.997Z,48.68
2018-08-27T03:35:55.566Z,49.07
2018-08-27T03:36:36.109Z,49.07
2018-08-27T03:37:16.673Z,49.07
2018-08-27T03:37:57.239Z,49.07
2018-08-27T03:38:37.810Z,49.07
2018-08-27T03:39:18.352Z,48.88
2018-08-27T03:39:58.941Z,49.26
2018-08-27T03:40:39.539Z,49.07
2018-08-27T03:41:20.106Z,48.88
2018-08-27T03:42:00.640Z,49.26
2018-08-27T03:42:41.213Z,49.07
2018-08-27T03:43:21.766Z,49.64
2018-08-27T03:44:02.324Z,49.26
2018-08-27T03:44:42.884Z,49.26
2018-08-27T03:45:23.461Z,49.55
2018-08-27T03:46:04.021Z,49.35
2018-08-27T03:46:44.579Z,49.16
2018-08-27T03:47:25.151Z,49.14
2018-08-27T03:48:05.682Z,49.26
2018-08-27T03:48:46.251Z,49.33
2018-08-27T03:49:26.814Z,49.26
2018-08-27T03:50:07.383Z,49.35
2018-08-27T03:50:47.949Z,49.33
2018-08-27T03:51:28.503Z,49.35
2018-08-27T03:52:09.081Z,49.52
2018-08-27T03:52:49.654Z,49.26
2018-08-27T03:53:30.201Z,49.43
2018-08-27T03:54:10.770Z,49.33
2018-08-27T03:54:51.335Z,49.43
2018-08-27T03:55:31.910Z,49.23
2018-08-27T03:56:12.517Z,49.62
2018-08-27T03:56:53.062Z,49.52
2018-08-27T03:57:33.629Z,49.62
2018-08-27T03:58:14.199Z,49.71
2018-08-27T03:58:54.757Z,49.62
2018-08-27T03:59:35.323Z,49.9
2018-08-27T04:00:15.898Z,50.19
2018-08-27T04:00:56.462Z,50.31
2018-08-27T04:01:37.029Z,50.09
2018-08-27T04:02:17.618Z,50
2018-08-27T04:02:58.131Z,50.19
2018-08-27T04:03:38.685Z,50.09
2018-08-27T04:04:19.256Z,50.19
2018-08-27T04:04:59.826Z,50.29
2018-08-27T04:05:40.395Z,50.09
2018-08-27T04:06:20.956Z,50.19
2018-08-27T04:07:01.540Z,50
2018-08-27T04:07:42.081Z,50
2018-08-27T04:08:22.648Z,50
2018-08-27T04:09:03.208Z,50
2018-08-27T04:09:43.765Z,49.9
2018-08-27T04:10:24.333Z,50.09
2018-08-27T04:11:04.892Z,50.19
2018-08-27T04:11:45.454Z,50.19
2018-08-27T04:12:26.020Z,49.71
2018-08-27T04:13:06.579Z,50.48
2018-08-27T04:13:47.143Z,50.19
2018-08-27T04:14:27.695Z,50.29
2018-08-27T04:15:08.262Z,50.38
2018-08-27T04:15:48.813Z,50.29
2018-08-27T04:16:29.373Z,50.09
2018-08-27T04:17:09.936Z,50
2018-08-27T04:17:50.493Z,50.38
2018-08-27T04:18:31.059Z,50.38
2018-08-27T04:19:11.615Z,50.29
2018-08-27T04:19:52.200Z,50.48
2018-08-27T04:20:32.774Z,50.38
2018-08-27T04:21:13.337Z,50.38
2018-08-27T04:21:53.898Z,50.38
2018-08-27T04:22:34.499Z,50.86
2018-08-27T04:23:15.098Z,51.15
2018-08-27T04:23:55.660Z,51.15
2018-08-27T04:24:36.219Z,51.15
2018-08-27T04:25:16.824Z,51.05
2018-08-27T04:25:57.368Z,50.67
2018-08-27T04:26:37.931Z,51.15
2018-08-27T04:27:18.487Z,50.76
2018-08-27T04:27:59.094Z,50.67
2018-08-27T04:28:39.720Z,50.76
2018-08-27T04:29:20.215Z,51.43
2018-08-27T04:30:00.787Z,51.43
2018-08-27T04:30:41.345Z,51.15
2018-08-27T04:31:21.911Z,51.24
2018-08-27T04:32:02.467Z,51.43
2018-08-27T04:32:43.030Z,51.15
2018-08-27T04:33:23.591Z,51.24
2018-08-27T04:34:04.155Z,51.15
2018-08-27T04:34:44.731Z,51.15
2018-08-27T04:35:25.292Z,51.05
2018-08-27T04:36:05.874Z,51.24
2018-08-27T04:36:46.422Z,51.24
2018-08-27T04:37:26.986Z,51.24
2018-08-27T04:38:07.595Z,51.15
2018-08-27T04:38:48.161Z,51.15
2018-08-27T04:39:28.729Z,51.24
2018-08-27T04:40:09.298Z,51.43
2018-08-27T04:40:49.857Z,51.15
2018-08-27T04:41:30.436Z,51.07
2018-08-27T04:42:10.998Z,51.17
2018-08-27T04:42:51.575Z,50.98
2018-08-27T04:43:32.126Z,51.17
2018-08-27T04:44:12.690Z,51.46
2018-08-27T04:44:53.247Z,53.28
2018-08-27T04:45:33.813Z,55.57
2018-08-27T04:46:14.376Z,57.87
2018-08-27T04:46:55.001Z,55.76
2018-08-27T04:47:35.507Z,57.68
2018-08-27T04:48:16.070Z,57.29
2018-08-27T04:48:56.627Z,58.09
2018-08-27T04:49:37.253Z,57.23
2018-08-27T04:50:17.819Z,55.79
2018-08-27T04:50:58.383Z,56.84
2018-08-27T04:51:38.945Z,57.04
2018-08-27T04:52:19.508Z,54.45
2018-08-27T04:53:00.070Z,54.57
2018-08-27T04:53:40.635Z,54.28
2018-08-27T04:54:21.196Z,53.42
2018-08-27T04:55:01.779Z,54
2018-08-27T04:55:42.322Z,52.47
2018-08-27T04:56:22.871Z,52.56
2018-08-27T04:57:03.441Z,52.47
2018-08-27T04:57:44.009Z,53.04
2018-08-27T04:58:24.583Z,54.1
2018-08-27T04:59:05.187Z,53.91
2018-08-27T04:59:45.743Z,53.62
2018-08-27T05:00:26.308Z,53.33
2018-08-27T05:01:06.850Z,53.23
2018-08-27T05:01:47.419Z,52.85
2018-08-27T05:02:27.981Z,52.47
2018-08-27T05:03:08.535Z,52.28
2018-08-27T05:03:49.105Z,52.09
2018-08-27T05:04:29.711Z,51.79
2018-08-27T05:05:10.280Z,52.18
2018-08-27T05:05:50.840Z,52.66
2018-08-27T05:06:31.404Z,52.66
2018-08-27T05:07:11.973Z,52.2
2018-08-27T05:07:52.536Z,52.69
2018-08-27T05:08:33.098Z,51.25
2018-08-27T05:09:13.660Z,50.48
2018-08-27T05:09:54.233Z,49.43
2018-08-27T05:10:34.789Z,50.48
2018-08-27T05:11:15.355Z,49.14
2018-08-27T05:11:55.905Z,49.21
2018-08-27T05:12:36.557Z,51.32
2018-08-27T05:13:17.195Z,51.61
2018-08-27T05:13:57.666Z,50.93
2018-08-27T05:14:38.241Z,51.06
2018-08-27T05:15:18.808Z,50.38
2018-08-27T05:15:59.402Z,49.5
2018-08-27T05:16:39.975Z,50.56
2018-08-27T05:17:20.535Z,52.97
2018-08-27T05:18:01.178Z,52.69
2018-08-27T05:18:41.750Z,52.01
2018-08-27T05:19:22.320Z,51.15
2018-08-27T05:20:02.885Z,52.3
2018-08-27T05:20:43.453Z,52.11
2018-08-27T05:21:24.020Z,52.2
2018-08-27T05:22:04.584Z,51.25
2018-08-27T05:22:45.149Z,52.01
2018-08-27T05:23:25.711Z,51.15
2018-08-27T05:24:06.282Z,51.92
2018-08-27T05:24:46.836Z,51.25
2018-08-27T05:25:27.407Z,48.75
2018-08-27T05:26:07.981Z,49.24
2018-08-27T05:26:48.581Z,49.71
2018-08-27T05:27:29.150Z,50
2018-08-27T05:28:09.708Z,50.2
2018-08-27T05:28:50.288Z,49.05
2018-08-27T05:29:30.842Z,49.52
2018-08-27T05:30:11.409Z,50.67
2018-08-27T05:30:51.999Z,50
2018-08-27T05:31:32.537Z,49.24
2018-08-27T05:32:13.094Z,49.24
2018-08-27T05:32:53.678Z,49.52
2018-08-27T05:33:34.247Z,50
2018-08-27T05:34:14.808Z,49.14
2018-08-27T05:34:55.365Z,50.38
2018-08-27T05:35:36.141Z,49.91
2018-08-27T05:36:16.705Z,48.47
2018-08-27T05:36:57.256Z,49.52
2018-08-27T05:37:37.830Z,48.95
2018-08-27T05:38:18.492Z,48.57
2018-08-27T05:38:59.056Z,49.24
2018-08-27T05:39:39.616Z,47.89
2018-08-27T05:40:20.188Z,48.09
2018-08-27T05:41:00.762Z,47.71
2018-08-27T05:41:41.327Z,47.89
2018-08-27T05:42:22.292Z,49.33
2018-08-27T05:43:02.862Z,48.85
2018-08-27T05:43:43.447Z,47.99
2018-08-27T05:44:25.045Z,47.32
2018-08-27T05:45:05.817Z,47.99
2018-08-27T05:45:46.400Z,48.18
2018-08-27T05:46:28.098Z,48.47
2018-08-27T05:47:09.478Z,47.99
2018-08-27T05:47:50.137Z,48.28
2018-08-27T05:48:30.577Z,49.14
2018-08-27T05:49:11.866Z,49.43
2018-08-27T05:49:53.213Z,49.33
2018-08-27T05:50:33.768Z,48.85
2018-08-27T05:51:14.417Z,48.38
2018-08-27T05:51:55.003Z,48.18
2018-08-27T05:52:35.631Z,48.75
2018-08-27T05:53:16.643Z,48.57
2018-08-27T05:53:58.455Z,48.85
2018-08-27T05:54:39.019Z,48.95
2018-08-27T05:55:19.626Z,48.85
2018-08-27T05:56:00.273Z,48.18
2018-08-27T05:56:40.864Z,48.09
2018-08-27T05:57:21.416Z,48.57
2018-08-27T05:58:01.994Z,48.95
2018-08-27T05:58:42.544Z,48.49
2018-08-27T05:59:23.251Z,47.51
2018-08-27T06:00:03.804Z,47.32
2018-08-27T06:00:44.742Z,48.09
2018-08-27T06:01:25.296Z,49.07
2018-08-27T06:02:05.839Z,48.11
2018-08-27T06:02:46.420Z,48.11
2018-08-27T06:03:27.011Z,48.4
2018-08-27T06:04:07.552Z,48.02
2018-08-27T06:04:48.199Z,48.97
2018-08-27T06:05:28.756Z,48.3
2018-08-27T06:06:09.330Z,47.73
2018-08-27T06:06:49.869Z,48.02
2018-08-27T06:07:30.433Z,47.34
2018-08-27T06:08:11.007Z,47.63
2018-08-27T06:08:51.613Z,47.73
2018-08-27T06:09:32.193Z,46.86
2018-08-27T06:10:12.765Z,47.37
2018-08-27T06:10:53.397Z,47.17
2018-08-27T06:11:33.902Z,47.37
2018-08-27T06:12:14.516Z,47.37
2018-08-27T06:12:55.076Z,46.79
2018-08-27T06:13:35.672Z,47.08
2018-08-27T06:14:16.236Z,46.89
2018-08-27T06:14:56.799Z,46.7
2018-08-27T06:15:37.359Z,46.31
2018-08-27T06:16:18.054Z,45.83
2018-08-27T06:16:58.740Z,45.54
2018-08-27T06:17:39.299Z,45.64
2018-08-27T06:18:19.887Z,45.74
2018-08-27T06:19:00.471Z,46.22
2018-08-27T06:19:41.044Z,45.93
2018-08-27T06:20:21.613Z,45.74
2018-08-27T06:21:02.200Z,45.83
2018-08-27T06:21:42.835Z,46.6
2018-08-27T06:22:23.499Z,46.5
2018-08-27T06:23:04.087Z,46.5
2018-08-27T06:23:44.722Z,45.93
2018-08-27T06:24:25.522Z,45.64
2018-08-27T06:25:06.276Z,45.74
2018-08-27T06:25:46.761Z,45.74
2018-08-27T06:26:27.318Z,46.03
2018-08-27T06:27:08.078Z,46.5
2018-08-27T06:27:48.651Z,46.7
2018-08-27T06:28:29.216Z,46.7
2018-08-27T06:29:09.759Z,45.54
2018-08-27T06:29:50.310Z,45.16
2018-08-27T06:30:30.915Z,45.36
2018-08-27T06:31:11.484Z,45.37
2018-08-27T06:31:52.051Z,45.95
2018-08-27T06:32:32.714Z,45.37
2018-08-27T06:33:13.205Z,45.18
2018-08-27T06:33:53.770Z,44.92
2018-08-27T06:34:34.329Z,45.4
2018-08-27T06:35:15.125Z,44.54
2018-08-27T06:35:55.671Z,44.63
2018-08-27T06:36:36.305Z,43.96
2018-08-27T06:37:16.852Z,43.19
2018-08-27T06:37:57.561Z,43.87
2018-08-27T06:38:38.279Z,43.48
2018-08-27T06:39:18.880Z,43.38
2018-08-27T06:39:59.422Z,43.48
2018-08-27T06:40:39.988Z,43.87
2018-08-27T06:41:20.578Z,43.29
2018-08-27T06:42:01.288Z,43.1
2018-08-27T06:42:41.880Z,42.52
2018-08-27T06:43:22.468Z,43.38
2018-08-27T06:44:03.466Z,43.1
2018-08-27T06:44:44.061Z,43.38
2018-08-27T06:45:24.630Z,43.38
2018-08-27T06:46:05.944Z,43.27
2018-08-27T06:46:46.553Z,43.55
2018-08-27T06:47:27.166Z,44.03
2018-08-27T06:48:07.778Z,44.03
2018-08-27T06:48:48.339Z,43.55
2018-08-27T06:49:28.914Z,44.03
2018-08-27T06:50:09.488Z,44.51
2018-08-27T06:50:50.211Z,44.03
2018-08-27T06:51:30.757Z,44.23
2018-08-27T06:52:11.346Z,43.94
2018-08-27T06:52:52.042Z,44.23
2018-08-27T06:53:32.613Z,43.65
2018-08-27T06:54:13.198Z,43.94
2018-08-27T06:54:53.835Z,43.84
2018-08-27T06:55:34.500Z,43.94
2018-08-27T06:56:15.401Z,44.32
2018-08-27T06:56:56.930Z,44.51
2018-08-27T06:57:38.329Z,44.51
2018-08-27T06:58:19.193Z,43.96
2018-08-27T06:58:59.732Z,44.06
2018-08-27T06:59:40.498Z,44.44
2018-08-27T07:00:21.074Z,44.44
2018-08-27T07:01:01.665Z,43.67
2018-08-27T07:01:42.318Z,44.06
2018-08-27T07:02:22.962Z,43.77
2018-08-27T07:03:03.498Z,43.87
2018-08-27T07:03:44.065Z,43.96
2018-08-27T07:04:24.720Z,44.06
2018-08-27T07:05:05.287Z,44.63
2018-08-27T07:05:45.834Z,44.34
2018-08-27T07:06:26.476Z,44.34
2018-08-27T07:07:07.077Z,44.06
2018-08-27T07:07:47.820Z,43.87
2018-08-27T07:08:28.319Z,43.87
2018-08-27T07:09:08.900Z,44.73
2018-08-27T07:09:49.498Z,43.87
2018-08-27T07:10:30.056Z,43.77
2018-08-27T07:11:10.619Z,43.1
2018-08-27T07:11:51.324Z,43.1
2018-08-27T07:12:31.760Z,43.57
2018-08-27T07:13:12.342Z,43.87
2018-08-27T07:13:52.954Z,43.98
2018-08-27T07:14:33.537Z,44.08
2018-08-27T07:15:14.114Z,43.5
2018-08-27T07:15:54.744Z,43.6
2018-08-27T07:16:35.462Z,43.5
2018-08-27T07:17:16.025Z,43.21
2018-08-27T07:17:56.588Z,43.21
2018-08-27T07:18:37.237Z,43.33
2018-08-27T07:19:17.765Z,42.54
2018-08-27T07:19:58.391Z,42.06
2018-08-27T07:20:38.971Z,42.18
2018-08-27T07:21:19.536Z,42.44
2018-08-27T07:22:00.103Z,42.37
2018-08-27T07:22:40.660Z,42.47
2018-08-27T07:23:21.220Z,43.14
2018-08-27T07:24:01.769Z,42.85
2018-08-27T07:24:42.324Z,41.89
2018-08-27T07:25:22.883Z,41.79
2018-08-27T07:26:03.482Z,42.18
2018-08-27T07:26:44.036Z,42.47
2018-08-27T07:27:24.645Z,41.79
2018-08-27T07:28:05.202Z,41.6
2018-08-27T07:28:45.832Z,42.27
2018-08-27T07:29:26.398Z,41.7
2018-08-27T07:30:06.959Z,42.08
2018-08-27T07:30:47.561Z,42.37
2018-08-27T07:31:28.131Z,41.6
2018-08-27T07:32:08.695Z,41.89
2018-08-27T07:32:49.298Z,41.7
2018-08-27T07:33:29.874Z,42.54
2018-08-27T07:34:10.428Z,42.56
2018-08-27T07:34:50.987Z,42.76
2018-08-27T07:35:31.669Z,42.66
2018-08-27T07:36:12.208Z,43.43
2018-08-27T07:36:52.733Z,42.18
2018-08-27T07:37:33.300Z,41.87
2018-08-27T07:38:13.864Z,41.89
2018-08-27T07:38:54.472Z,41.87
2018-08-27T07:39:35.011Z,41.58
2018-08-27T07:40:15.578Z,41.87
2018-08-27T07:40:56.151Z,41.67
2018-08-27T07:41:36.704Z,41.79
2018-08-27T07:42:17.286Z,41.58
2018-08-27T07:42:57.854Z,41.5
2018-08-27T07:43:38.463Z,41.29
2018-08-27T07:44:19.012Z,40.81
2018-08-27T07:44:59.587Z,40.55
2018-08-27T07:45:40.147Z,40.64
2018-08-27T07:46:20.855Z,41.31
2018-08-27T07:47:01.506Z,41.12
2018-08-27T07:47:42.064Z,40.37
2018-08-27T07:48:22.644Z,40.47
2018-08-27T07:49:03.224Z,40.85
2018-08-27T07:49:43.790Z,40.66
2018-08-27T07:50:24.365Z,40.08
2018-08-27T07:51:04.990Z,39.91
2018-08-27T07:51:45.548Z,39.53
2018-08-27T07:52:26.475Z,39.53
2018-08-27T07:53:07.230Z,39.53
2018-08-27T07:53:48.389Z,39.14
2018-08-27T07:54:28.955Z,39.14
2018-08-27T07:55:09.518Z,39.43
2018-08-27T07:55:50.126Z,39.24
2018-08-27T07:56:30.672Z,39.33
2018-08-27T07:57:11.250Z,39.22
2018-08-27T07:57:51.844Z,39.04
2018-08-27T07:58:32.469Z,38.64
2018-08-27T07:59:12.957Z,38.74
2018-08-27T07:59:53.550Z,38.93
2018-08-27T08:00:34.127Z,39.22
2018-08-27T08:01:14.693Z,39.22
2018-08-27T08:01:56.479Z,39.31
2018-08-27T08:02:36.704Z,39.31
2018-08-27T08:03:18.558Z,39.22
2018-08-27T08:03:59.146Z,39.51
2018-08-27T08:04:39.819Z,39.89
2018-08-27T08:05:20.345Z,39.51
2018-08-27T08:06:01.011Z,39.61
2018-08-27T08:06:41.803Z,39.31
2018-08-27T08:07:22.534Z,39.7
2018-08-27T08:08:03.038Z,39.79
2018-08-27T08:08:43.701Z,40.11
2018-08-27T08:09:25.356Z,40.11
2018-08-27T08:10:06.123Z,40.2
2018-08-27T08:10:46.769Z,40.2
2018-08-27T08:11:27.391Z,40.01
2018-08-27T08:12:08.131Z,40.39
2018-08-27T08:12:48.562Z,40.11
2018-08-27T08:13:29.302Z,39.83
2018-08-27T08:14:10.145Z,38.01
2018-08-27T08:14:50.853Z,37.52
2018-08-27T08:15:31.478Z,37.91
2018-08-27T08:16:12.124Z,38.68
2018-08-27T08:16:52.801Z,39.16
2018-08-27T08:17:33.512Z,38.59
2018-08-27T08:18:14.188Z,37.64
2018-08-27T08:18:54.825Z,37.16
2018-08-27T08:19:35.522Z,36.68
2018-08-27T08:20:16.216Z,36.1
2018-08-27T08:20:56.925Z,36.19
2018-08-27T08:21:37.588Z,36.58
2018-08-27T08:22:18.192Z,37.16
2018-08-27T08:22:58.884Z,37.35
2018-08-27T08:23:39.318Z,36.58
2018-08-27T08:24:19.886Z,36.39
2018-08-27T08:25:00.436Z,36.51
2018-08-27T08:25:41.055Z,36.89
2018-08-27T08:26:21.623Z,36.11
2018-08-27T08:27:02.185Z,36.31
2018-08-27T08:27:42.765Z,36.02
2018-08-27T08:28:23.340Z,35.93
2018-08-27T08:29:03.971Z,35.93
2018-08-27T08:29:44.538Z,35.83
2018-08-27T08:30:25.112Z,34.77
2018-08-27T08:31:05.676Z,34.58
2018-08-27T08:31:46.236Z,34.77
2018-08-27T08:32:26.811Z,34.77
2018-08-27T08:33:07.411Z,35.54
2018-08-27T08:33:47.943Z,35.35
2018-08-27T08:34:28.593Z,35.64
2018-08-27T08:35:09.157Z,34.94
2018-08-27T08:35:49.758Z,35.25
2018-08-27T08:36:30.355Z,35.44
2018-08-27T08:37:10.921Z,35.25
2018-08-27T08:37:51.500Z,35.54
2018-08-27T08:38:32.093Z,34.67
2018-08-27T08:39:12.770Z,34.77
2018-08-27T08:39:53.352Z,34.86
2018-08-27T08:40:33.922Z,34.58
2018-08-27T08:41:14.493Z,34.48
2018-08-27T08:41:55.070Z,34.58
2018-08-27T08:42:35.702Z,34.58
2018-08-27T08:43:16.355Z,34.58
2018-08-27T08:43:56.923Z,34.86
2018-08-27T08:44:37.562Z,34.77
2018-08-27T08:45:18.116Z,34.77